sensor_id;sensor_type;location;lat;lon;timestamp;temperature;humidity
62583;DHT22;48641;51.676;5.808;2024-01-25T00:00:41;15.20;54.30
62583;DHT22;48641;51.676;5.808;2024-01-25T00:03:07;15.30;54.40
62583;DHT22;48641;51.676;5.808;2024-01-25T00:05:32;15.20;54.40
62583;DHT22;48641;51.676;5.808;2024-01-25T00:07:58;15.20;54.40
62583;DHT22;48641;51.676;5.808;2024-01-25T00:10:23;15.20;54.40
62583;DHT22;48641;51.676;5.808;2024-01-25T00:12:49;15.20;54.40
62583;DHT22;48641;51.676;5.808;2024-01-25T00:15:15;15.20;54.40
62583;DHT22;48641;51.676;5.808;2024-01-25T00:17:41;15.20;54.40
62583;DHT22;48641;51.676;5.808;2024-01-25T00:20:09;15.20;54.40
62583;DHT22;48641;51.676;5.808;2024-01-25T00:22:35;15.20;54.40
62583;DHT22;48641;51.676;5.808;2024-01-25T00:25:01;15.20;54.40
62583;DHT22;48641;51.676;5.808;2024-01-25T00:27:26;15.20;54.40
62583;DHT22;48641;51.676;5.808;2024-01-25T00:29:52;15.20;54.50
62583;DHT22;48641;51.676;5.808;2024-01-25T00:32:17;15.20;54.40
62583;DHT22;48641;51.676;5.808;2024-01-25T00:34:43;15.20;54.40
62583;DHT22;48641;51.676;5.808;2024-01-25T00:37:09;15.20;54.40
62583;DHT22;48641;51.676;5.808;2024-01-25T00:39:35;15.20;54.40
62583;DHT22;48641;51.676;5.808;2024-01-25T00:42:06;15.20;54.40
62583;DHT22;48641;51.676;5.808;2024-01-25T00:44:33;15.20;54.40
62583;DHT22;48641;51.676;5.808;2024-01-25T00:46:58;15.20;54.40
62583;DHT22;48641;51.676;5.808;2024-01-25T00:49:24;15.20;54.40
62583;DHT22;48641;51.676;5.808;2024-01-25T00:51:55;15.10;54.30
62583;DHT22;48641;51.676;5.808;2024-01-25T00:54:24;15.20;54.40
62583;DHT22;48641;51.676;5.808;2024-01-25T00:56:49;15.10;54.30
62583;DHT22;48641;51.676;5.808;2024-01-25T00:59:18;15.10;54.40
62583;DHT22;48641;51.676;5.808;2024-01-25T01:01:47;15.10;54.30
62583;DHT22;48641;51.676;5.808;2024-01-25T01:04:13;15.20;54.50
62583;DHT22;48641;51.676;5.808;2024-01-25T01:06:40;15.10;54.30
62583;DHT22;48641;51.676;5.808;2024-01-25T01:09:05;15.10;54.50
62583;DHT22;48641;51.676;5.808;2024-01-25T01:11:31;15.10;54.50
62583;DHT22;48641;51.676;5.808;2024-01-25T01:13:57;15.10;54.50
62583;DHT22;48641;51.676;5.808;2024-01-25T01:16:22;15.10;54.50
62583;DHT22;48641;51.676;5.808;2024-01-25T01:18:48;15.10;54.50
62583;DHT22;48641;51.676;5.808;2024-01-25T01:21:13;15.10;54.50
62583;DHT22;48641;51.676;5.808;2024-01-25T01:23:39;15.10;54.50
62583;DHT22;48641;51.676;5.808;2024-01-25T01:26:05;15.10;54.50
62583;DHT22;48641;51.676;5.808;2024-01-25T01:28:31;15.10;54.50
62583;DHT22;48641;51.676;5.808;2024-01-25T01:30:56;15.10;54.50
62583;DHT22;48641;51.676;5.808;2024-01-25T01:33:22;15.10;54.50
62583;DHT22;48641;51.676;5.808;2024-01-25T01:35:47;15.10;54.50
62583;DHT22;48641;51.676;5.808;2024-01-25T01:38:14;15.10;54.40
62583;DHT22;48641;51.676;5.808;2024-01-25T01:40:39;15.10;54.40
62583;DHT22;48641;51.676;5.808;2024-01-25T01:43:05;15.10;54.40
62583;DHT22;48641;51.676;5.808;2024-01-25T01:45:31;15.00;54.40
62583;DHT22;48641;51.676;5.808;2024-01-25T01:47:57;15.00;54.40
62583;DHT22;48641;51.676;5.808;2024-01-25T01:50:24;15.00;54.40
62583;DHT22;48641;51.676;5.808;2024-01-25T01:52:50;15.10;54.40
62583;DHT22;48641;51.676;5.808;2024-01-25T01:55:19;15.00;54.30
62583;DHT22;48641;51.676;5.808;2024-01-25T01:57:46;15.00;54.30
62583;DHT22;48641;51.676;5.808;2024-01-25T02:00:14;15.00;54.30
62583;DHT22;48641;51.676;5.808;2024-01-25T02:02:41;15.00;54.40
62583;DHT22;48641;51.676;5.808;2024-01-25T02:05:07;15.00;54.40
62583;DHT22;48641;51.676;5.808;2024-01-25T02:07:33;15.00;54.40
62583;DHT22;48641;51.676;5.808;2024-01-25T02:09:59;15.00;54.30
62583;DHT22;48641;51.676;5.808;2024-01-25T02:12:24;15.00;54.40
62583;DHT22;48641;51.676;5.808;2024-01-25T02:14:50;15.00;54.40
62583;DHT22;48641;51.676;5.808;2024-01-25T02:17:15;15.00;54.40
62583;DHT22;48641;51.676;5.808;2024-01-25T02:19:41;15.00;54.40
62583;DHT22;48641;51.676;5.808;2024-01-25T02:22:07;15.00;54.40
62583;DHT22;48641;51.676;5.808;2024-01-25T02:24:32;14.90;54.30
62583;DHT22;48641;51.676;5.808;2024-01-25T02:26:58;15.00;54.40
62583;DHT22;48641;51.676;5.808;2024-01-25T02:29:23;14.90;54.40
62583;DHT22;48641;51.676;5.808;2024-01-25T02:31:49;15.00;54.40
62583;DHT22;48641;51.676;5.808;2024-01-25T02:34:15;15.00;54.40
62583;DHT22;48641;51.676;5.808;2024-01-25T02:36:40;15.00;54.40
62583;DHT22;48641;51.676;5.808;2024-01-25T02:39:06;15.00;54.40
62583;DHT22;48641;51.676;5.808;2024-01-25T02:41:32;14.90;54.50
62583;DHT22;48641;51.676;5.808;2024-01-25T02:43:57;14.90;54.40
62583;DHT22;48641;51.676;5.808;2024-01-25T02:46:23;14.90;54.40
62583;DHT22;48641;51.676;5.808;2024-01-25T02:48:49;14.90;54.40
62583;DHT22;48641;51.676;5.808;2024-01-25T02:51:14;14.90;54.40
62583;DHT22;48641;51.676;5.808;2024-01-25T02:53:40;14.90;54.40
62583;DHT22;48641;51.676;5.808;2024-01-25T02:56:06;14.90;54.30
62583;DHT22;48641;51.676;5.808;2024-01-25T02:58:33;14.90;54.40
62583;DHT22;48641;51.676;5.808;2024-01-25T03:00:59;14.90;54.40
62583;DHT22;48641;51.676;5.808;2024-01-25T03:03:24;14.90;54.40
62583;DHT22;48641;51.676;5.808;2024-01-25T03:05:53;14.90;54.40
62583;DHT22;48641;51.676;5.808;2024-01-25T03:08:18;14.90;54.40
62583;DHT22;48641;51.676;5.808;2024-01-25T03:10:45;14.90;54.40
62583;DHT22;48641;51.676;5.808;2024-01-25T03:13:11;14.90;54.50
62583;DHT22;48641;51.676;5.808;2024-01-25T03:15:37;14.80;54.40
62583;DHT22;48641;51.676;5.808;2024-01-25T03:18:02;14.80;54.40
62583;DHT22;48641;51.676;5.808;2024-01-25T03:20:29;14.80;54.40
62583;DHT22;48641;51.676;5.808;2024-01-25T03:22:54;14.80;54.30
62583;DHT22;48641;51.676;5.808;2024-01-25T03:25:21;14.80;54.40
62583;DHT22;48641;51.676;5.808;2024-01-25T03:27:46;14.80;54.30
62583;DHT22;48641;51.676;5.808;2024-01-25T03:30:12;14.80;54.30
62583;DHT22;48641;51.676;5.808;2024-01-25T03:32:37;14.80;54.30
62583;DHT22;48641;51.676;5.808;2024-01-25T03:35:03;14.80;54.30
62583;DHT22;48641;51.676;5.808;2024-01-25T03:37:29;14.80;54.30
62583;DHT22;48641;51.676;5.808;2024-01-25T03:39:54;14.80;54.40
62583;DHT22;48641;51.676;5.808;2024-01-25T03:42:20;14.80;54.40
62583;DHT22;48641;51.676;5.808;2024-01-25T03:44:45;14.80;54.40
62583;DHT22;48641;51.676;5.808;2024-01-25T03:47:12;14.80;54.30
62583;DHT22;48641;51.676;5.808;2024-01-25T03:49:38;14.80;54.30
62583;DHT22;48641;51.676;5.808;2024-01-25T03:52:04;14.70;54.40
62583;DHT22;48641;51.676;5.808;2024-01-25T03:54:30;14.70;54.40
62583;DHT22;48641;51.676;5.808;2024-01-25T03:56:56;14.70;54.30
62583;DHT22;48641;51.676;5.808;2024-01-25T03:59:21;14.70;54.30
62583;DHT22;48641;51.676;5.808;2024-01-25T04:01:47;14.70;54.30
62583;DHT22;48641;51.676;5.808;2024-01-25T04:04:13;14.70;54.40
62583;DHT22;48641;51.676;5.808;2024-01-25T04:06:42;14.70;54.40
62583;DHT22;48641;51.676;5.808;2024-01-25T04:09:08;14.70;54.40
62583;DHT22;48641;51.676;5.808;2024-01-25T04:11:36;14.70;54.40
62583;DHT22;48641;51.676;5.808;2024-01-25T04:14:01;14.70;54.40
62583;DHT22;48641;51.676;5.808;2024-01-25T04:16:27;14.70;54.40
62583;DHT22;48641;51.676;5.808;2024-01-25T04:18:53;14.70;54.40
62583;DHT22;48641;51.676;5.808;2024-01-25T04:21:18;14.70;54.40
62583;DHT22;48641;51.676;5.808;2024-01-25T04:23:44;14.70;54.40
62583;DHT22;48641;51.676;5.808;2024-01-25T04:26:09;14.70;54.40
62583;DHT22;48641;51.676;5.808;2024-01-25T04:28:35;14.70;54.40
62583;DHT22;48641;51.676;5.808;2024-01-25T04:31:02;14.70;54.40
62583;DHT22;48641;51.676;5.808;2024-01-25T04:33:29;14.70;54.30
62583;DHT22;48641;51.676;5.808;2024-01-25T04:35:54;14.60;54.30
62583;DHT22;48641;51.676;5.808;2024-01-25T04:38:21;14.60;54.30
62583;DHT22;48641;51.676;5.808;2024-01-25T04:40:47;14.60;54.30
62583;DHT22;48641;51.676;5.808;2024-01-25T04:43:12;14.60;54.30
62583;DHT22;48641;51.676;5.808;2024-01-25T04:45:39;14.60;54.40
62583;DHT22;48641;51.676;5.808;2024-01-25T04:48:05;14.60;54.40
62583;DHT22;48641;51.676;5.808;2024-01-25T04:50:31;14.60;54.30
62583;DHT22;48641;51.676;5.808;2024-01-25T04:52:56;14.60;54.30
62583;DHT22;48641;51.676;5.808;2024-01-25T04:55:22;14.60;54.30
62583;DHT22;48641;51.676;5.808;2024-01-25T04:57:47;14.60;54.40
62583;DHT22;48641;51.676;5.808;2024-01-25T05:00:15;14.50;54.30
62583;DHT22;48641;51.676;5.808;2024-01-25T05:02:42;14.60;54.30
62583;DHT22;48641;51.676;5.808;2024-01-25T05:05:07;14.60;54.40
62583;DHT22;48641;51.676;5.808;2024-01-25T05:07:33;14.50;54.30
62583;DHT22;48641;51.676;5.808;2024-01-25T05:09:58;14.60;54.30
62583;DHT22;48641;51.676;5.808;2024-01-25T05:12:24;14.50;54.30
62583;DHT22;48641;51.676;5.808;2024-01-25T05:14:50;14.50;54.30
62583;DHT22;48641;51.676;5.808;2024-01-25T05:17:15;14.50;54.30
62583;DHT22;48641;51.676;5.808;2024-01-25T05:19:41;14.50;54.30
62583;DHT22;48641;51.676;5.808;2024-01-25T05:22:06;14.50;54.30
62583;DHT22;48641;51.676;5.808;2024-01-25T05:24:33;14.50;54.30
62583;DHT22;48641;51.676;5.808;2024-01-25T05:26:59;14.50;54.30
62583;DHT22;48641;51.676;5.808;2024-01-25T05:29:25;14.50;54.30
62583;DHT22;48641;51.676;5.808;2024-01-25T05:31:50;14.50;54.30
62583;DHT22;48641;51.676;5.808;2024-01-25T05:34:16;14.40;54.20
62583;DHT22;48641;51.676;5.808;2024-01-25T05:36:41;14.50;54.30
62583;DHT22;48641;51.676;5.808;2024-01-25T05:39:07;14.40;54.20
62583;DHT22;48641;51.676;5.808;2024-01-25T05:41:36;14.50;54.30
62583;DHT22;48641;51.676;5.808;2024-01-25T05:44:02;14.50;54.30
62583;DHT22;48641;51.676;5.808;2024-01-25T05:46:27;14.40;54.30
62583;DHT22;48641;51.676;5.808;2024-01-25T05:48:53;14.40;54.30
62583;DHT22;48641;51.676;5.808;2024-01-25T05:51:19;14.40;54.30
62583;DHT22;48641;51.676;5.808;2024-01-25T05:53:44;14.40;54.30
62583;DHT22;48641;51.676;5.808;2024-01-25T05:56:10;14.40;54.30
62583;DHT22;48641;51.676;5.808;2024-01-25T05:58:35;14.40;54.40
62583;DHT22;48641;51.676;5.808;2024-01-25T06:01:01;14.40;54.30
62583;DHT22;48641;51.676;5.808;2024-01-25T06:03:27;14.40;54.30
62583;DHT22;48641;51.676;5.808;2024-01-25T06:05:53;14.40;54.30
62583;DHT22;48641;51.676;5.808;2024-01-25T06:08:19;14.40;54.30
62583;DHT22;48641;51.676;5.808;2024-01-25T06:10:45;14.40;54.30
62583;DHT22;48641;51.676;5.808;2024-01-25T06:13:10;14.50;54.30
62583;DHT22;48641;51.676;5.808;2024-01-25T06:15:36;14.50;54.20
62583;DHT22;48641;51.676;5.808;2024-01-25T06:18:01;14.50;54.20
62583;DHT22;48641;51.676;5.808;2024-01-25T06:20:28;14.50;54.20
62583;DHT22;48641;51.676;5.808;2024-01-25T06:22:54;14.50;54.10
62583;DHT22;48641;51.676;5.808;2024-01-25T06:25:19;14.50;54.10
62583;DHT22;48641;51.676;5.808;2024-01-25T06:27:45;14.60;54.10
62583;DHT22;48641;51.676;5.808;2024-01-25T06:30:10;14.60;54.00
62583;DHT22;48641;51.676;5.808;2024-01-25T06:32:36;14.60;54.10
62583;DHT22;48641;51.676;5.808;2024-01-25T06:35:03;14.60;54.10
62583;DHT22;48641;51.676;5.808;2024-01-25T06:37:29;14.70;54.10
62583;DHT22;48641;51.676;5.808;2024-01-25T06:39:55;14.60;57.60
62583;DHT22;48641;51.676;5.808;2024-01-25T06:42:21;14.70;58.80
62583;DHT22;48641;51.676;5.808;2024-01-25T06:44:47;14.70;59.10
62583;DHT22;48641;51.676;5.808;2024-01-25T06:47:12;14.80;59.40
62583;DHT22;48641;51.676;5.808;2024-01-25T06:49:38;14.90;59.70
62583;DHT22;48641;51.676;5.808;2024-01-25T06:52:04;14.90;59.60
62583;DHT22;48641;51.676;5.808;2024-01-25T06:54:30;15.00;59.60
62583;DHT22;48641;51.676;5.808;2024-01-25T06:56:56;14.90;59.50
62583;DHT22;48641;51.676;5.808;2024-01-25T06:59:22;15.00;59.70
62583;DHT22;48641;51.676;5.808;2024-01-25T07:01:47;15.00;59.30
62583;DHT22;48641;51.676;5.808;2024-01-25T07:04:13;15.00;58.60
62583;DHT22;48641;51.676;5.808;2024-01-25T07:06:39;15.00;58.10
62583;DHT22;48641;51.676;5.808;2024-01-25T07:09:05;15.00;57.60
62583;DHT22;48641;51.676;5.808;2024-01-25T07:11:31;15.00;57.10
62583;DHT22;48641;51.676;5.808;2024-01-25T07:13:56;15.00;56.60
62583;DHT22;48641;51.676;5.808;2024-01-25T07:16:22;15.00;56.30
62583;DHT22;48641;51.676;5.808;2024-01-25T07:18:49;15.00;55.90
62583;DHT22;48641;51.676;5.808;2024-01-25T07:21:15;15.00;55.50
62583;DHT22;48641;51.676;5.808;2024-01-25T07:23:40;15.00;55.10
62583;DHT22;48641;51.676;5.808;2024-01-25T07:26:06;14.90;54.80
62583;DHT22;48641;51.676;5.808;2024-01-25T07:28:32;14.90;54.80
62583;DHT22;48641;51.676;5.808;2024-01-25T07:30:57;14.90;54.50
62583;DHT22;48641;51.676;5.808;2024-01-25T07:33:23;14.90;54.40
62583;DHT22;48641;51.676;5.808;2024-01-25T07:35:48;14.90;54.20
62583;DHT22;48641;51.676;5.808;2024-01-25T07:38:15;14.90;54.10
62583;DHT22;48641;51.676;5.808;2024-01-25T07:40:41;14.80;53.90
62583;DHT22;48641;51.676;5.808;2024-01-25T07:43:07;14.90;53.70
62583;DHT22;48641;51.676;5.808;2024-01-25T07:45:32;14.80;53.50
62583;DHT22;48641;51.676;5.808;2024-01-25T07:47:59;14.80;53.30
62583;DHT22;48641;51.676;5.808;2024-01-25T07:50:24;14.80;53.20
62583;DHT22;48641;51.676;5.808;2024-01-25T07:52:50;14.80;53.20
62583;DHT22;48641;51.676;5.808;2024-01-25T07:55:18;14.80;53.00
62583;DHT22;48641;51.676;5.808;2024-01-25T07:57:44;14.80;53.00
62583;DHT22;48641;51.676;5.808;2024-01-25T08:00:10;14.80;52.90
62583;DHT22;48641;51.676;5.808;2024-01-25T08:02:36;14.80;52.80
62583;DHT22;48641;51.676;5.808;2024-01-25T08:05:02;14.80;52.80
62583;DHT22;48641;51.676;5.808;2024-01-25T08:07:28;14.80;52.70
62583;DHT22;48641;51.676;5.808;2024-01-25T08:09:54;14.80;52.70
62583;DHT22;48641;51.676;5.808;2024-01-25T08:12:24;14.80;52.70
62583;DHT22;48641;51.676;5.808;2024-01-25T08:14:50;14.80;52.70
62583;DHT22;48641;51.676;5.808;2024-01-25T08:17:15;14.80;52.50
62583;DHT22;48641;51.676;5.808;2024-01-25T08:19:41;14.80;52.30
62583;DHT22;48641;51.676;5.808;2024-01-25T08:22:07;14.80;52.30
62583;DHT22;48641;51.676;5.808;2024-01-25T08:24:32;14.80;52.20
62583;DHT22;48641;51.676;5.808;2024-01-25T08:26:58;14.80;52.30
62583;DHT22;48641;51.676;5.808;2024-01-25T08:29:23;14.80;52.20
62583;DHT22;48641;51.676;5.808;2024-01-25T08:31:49;14.80;52.30
62583;DHT22;48641;51.676;5.808;2024-01-25T08:34:15;14.80;52.30
62583;DHT22;48641;51.676;5.808;2024-01-25T08:36:40;14.80;52.20
62583;DHT22;48641;51.676;5.808;2024-01-25T08:39:06;14.80;52.10
62583;DHT22;48641;51.676;5.808;2024-01-25T08:41:34;14.80;52.10
62583;DHT22;48641;51.676;5.808;2024-01-25T08:43:59;14.80;51.90
62583;DHT22;48641;51.676;5.808;2024-01-25T08:46:25;14.80;51.90
62583;DHT22;48641;51.676;5.808;2024-01-25T08:48:50;14.80;51.80
62583;DHT22;48641;51.676;5.808;2024-01-25T08:51:16;14.80;51.80
62583;DHT22;48641;51.676;5.808;2024-01-25T08:53:42;14.80;51.90
62583;DHT22;48641;51.676;5.808;2024-01-25T08:56:07;14.80;51.80
62583;DHT22;48641;51.676;5.808;2024-01-25T08:58:33;14.80;51.90
62583;DHT22;48641;51.676;5.808;2024-01-25T09:00:58;14.80;52.00
62583;DHT22;48641;51.676;5.808;2024-01-25T09:03:24;14.80;52.30
62583;DHT22;48641;51.676;5.808;2024-01-25T09:05:50;14.80;53.00
62583;DHT22;48641;51.676;5.808;2024-01-25T09:08:15;14.80;52.80
62583;DHT22;48641;51.676;5.808;2024-01-25T09:10:42;14.80;52.70
62583;DHT22;48641;51.676;5.808;2024-01-25T09:13:08;14.80;52.70
62583;DHT22;48641;51.676;5.808;2024-01-25T09:15:34;14.80;52.50
62583;DHT22;48641;51.676;5.808;2024-01-25T09:17:59;14.90;52.40
62583;DHT22;48641;51.676;5.808;2024-01-25T09:20:25;14.90;52.40
62583;DHT22;48641;51.676;5.808;2024-01-25T09:22:51;14.90;52.30
62583;DHT22;48641;51.676;5.808;2024-01-25T09:25:19;14.90;52.20
62583;DHT22;48641;51.676;5.808;2024-01-25T09:27:44;14.90;52.10
62583;DHT22;48641;51.676;5.808;2024-01-25T09:30:10;14.90;52.00
62583;DHT22;48641;51.676;5.808;2024-01-25T09:32:36;14.90;52.00
62583;DHT22;48641;51.676;5.808;2024-01-25T09:35:02;14.90;52.10
62583;DHT22;48641;51.676;5.808;2024-01-25T09:37:27;14.90;52.10
62583;DHT22;48641;51.676;5.808;2024-01-25T09:39:53;14.90;52.20
62583;DHT22;48641;51.676;5.808;2024-01-25T09:42:19;14.90;52.20
62583;DHT22;48641;51.676;5.808;2024-01-25T09:44:45;14.90;52.20
62583;DHT22;48641;51.676;5.808;2024-01-25T09:47:11;14.90;52.20
62583;DHT22;48641;51.676;5.808;2024-01-25T09:49:37;14.90;52.20
62583;DHT22;48641;51.676;5.808;2024-01-25T09:52:03;14.80;52.20
62583;DHT22;48641;51.676;5.808;2024-01-25T09:54:35;14.90;52.40
62583;DHT22;48641;51.676;5.808;2024-01-25T09:57:08;14.80;52.50
62583;DHT22;48641;51.676;5.808;2024-01-25T09:59:37;14.80;52.60
62583;DHT22;48641;51.676;5.808;2024-01-25T10:02:03;14.80;52.70
62583;DHT22;48641;51.676;5.808;2024-01-25T10:04:29;14.80;52.80
62583;DHT22;48641;51.676;5.808;2024-01-25T10:06:58;14.80;53.00
62583;DHT22;48641;51.676;5.808;2024-01-25T10:09:24;14.80;53.20
62583;DHT22;48641;51.676;5.808;2024-01-25T10:11:49;14.80;53.10
62583;DHT22;48641;51.676;5.808;2024-01-25T10:14:15;14.80;53.20
62583;DHT22;48641;51.676;5.808;2024-01-25T10:16:40;14.80;53.20
62583;DHT22;48641;51.676;5.808;2024-01-25T10:19:07;14.80;53.20
62583;DHT22;48641;51.676;5.808;2024-01-25T10:21:36;14.80;53.30
62583;DHT22;48641;51.676;5.808;2024-01-25T10:24:02;14.80;53.30
62583;DHT22;48641;51.676;5.808;2024-01-25T10:26:28;14.80;53.30
62583;DHT22;48641;51.676;5.808;2024-01-25T10:28:54;14.80;53.40
62583;DHT22;48641;51.676;5.808;2024-01-25T10:31:23;14.80;53.50
62583;DHT22;48641;51.676;5.808;2024-01-25T10:33:52;14.80;53.60
62583;DHT22;48641;51.676;5.808;2024-01-25T10:36:18;14.90;53.70
62583;DHT22;48641;51.676;5.808;2024-01-25T10:38:48;14.90;53.60
62583;DHT22;48641;51.676;5.808;2024-01-25T10:41:14;14.90;53.60
62583;DHT22;48641;51.676;5.808;2024-01-25T10:43:40;14.90;53.50
62583;DHT22;48641;51.676;5.808;2024-01-25T10:46:06;14.90;53.50
62583;DHT22;48641;51.676;5.808;2024-01-25T10:48:32;15.00;53.60
62583;DHT22;48641;51.676;5.808;2024-01-25T10:50:58;14.90;53.60
62583;DHT22;48641;51.676;5.808;2024-01-25T10:53:30;15.00;53.80
62583;DHT22;48641;51.676;5.808;2024-01-25T10:55:57;15.00;53.80
62583;DHT22;48641;51.676;5.808;2024-01-25T10:58:22;15.00;53.70
62583;DHT22;48641;51.676;5.808;2024-01-25T11:00:52;15.00;53.90
62583;DHT22;48641;51.676;5.808;2024-01-25T11:03:18;15.00;53.90
62583;DHT22;48641;51.676;5.808;2024-01-25T11:05:46;15.00;53.90
62583;DHT22;48641;51.676;5.808;2024-01-25T11:08:19;15.10;54.10
62583;DHT22;48641;51.676;5.808;2024-01-25T11:10:51;15.10;54.00
62583;DHT22;48641;51.676;5.808;2024-01-25T11:13:23;15.10;54.00
62583;DHT22;48641;51.676;5.808;2024-01-25T11:15:49;15.10;54.00
62583;DHT22;48641;51.676;5.808;2024-01-25T11:18:14;15.10;53.90
62583;DHT22;48641;51.676;5.808;2024-01-25T11:20:40;15.10;53.90
62583;DHT22;48641;51.676;5.808;2024-01-25T11:23:06;15.10;53.90
62583;DHT22;48641;51.676;5.808;2024-01-25T11:25:35;15.10;53.90
62583;DHT22;48641;51.676;5.808;2024-01-25T11:28:02;15.10;53.90
62583;DHT22;48641;51.676;5.808;2024-01-25T11:30:31;15.20;54.00
62583;DHT22;48641;51.676;5.808;2024-01-25T11:32:57;15.20;54.00
62583;DHT22;48641;51.676;5.808;2024-01-25T11:35:23;15.10;54.00
62583;DHT22;48641;51.676;5.808;2024-01-25T11:37:49;15.10;54.10
62583;DHT22;48641;51.676;5.808;2024-01-25T11:40:17;15.10;54.30
62583;DHT22;48641;51.676;5.808;2024-01-25T11:42:46;15.10;54.30
62583;DHT22;48641;51.676;5.808;2024-01-25T11:45:13;15.10;54.30
62583;DHT22;48641;51.676;5.808;2024-01-25T11:47:40;15.10;54.30
62583;DHT22;48641;51.676;5.808;2024-01-25T11:50:07;15.20;54.40
62583;DHT22;48641;51.676;5.808;2024-01-25T11:52:33;15.10;54.30
62583;DHT22;48641;51.676;5.808;2024-01-25T11:55:06;15.10;54.40
62583;DHT22;48641;51.676;5.808;2024-01-25T11:57:38;15.10;54.30
62583;DHT22;48641;51.676;5.808;2024-01-25T12:00:05;15.10;54.40
62583;DHT22;48641;51.676;5.808;2024-01-25T12:02:32;15.20;54.40
62583;DHT22;48641;51.676;5.808;2024-01-25T12:04:57;15.20;54.30
62583;DHT22;48641;51.676;5.808;2024-01-25T12:07:23;15.20;54.20
62583;DHT22;48641;51.676;5.808;2024-01-25T12:12:23;15.20;54.40
62583;DHT22;48641;51.676;5.808;2024-01-25T12:14:49;15.20;54.40
62583;DHT22;48641;51.676;5.808;2024-01-25T12:17:14;15.20;54.30
62583;DHT22;48641;51.676;5.808;2024-01-25T12:19:40;15.20;54.20
62583;DHT22;48641;51.676;5.808;2024-01-25T12:22:06;15.20;54.20
62583;DHT22;48641;51.676;5.808;2024-01-25T12:24:31;15.20;54.10
62583;DHT22;48641;51.676;5.808;2024-01-25T12:26:57;15.20;54.20
62583;DHT22;48641;51.676;5.808;2024-01-25T12:29:22;15.20;54.20
62583;DHT22;48641;51.676;5.808;2024-01-25T12:31:48;15.10;54.20
62583;DHT22;48641;51.676;5.808;2024-01-25T12:34:14;15.20;54.30
62583;DHT22;48641;51.676;5.808;2024-01-25T12:36:41;15.10;54.30
62583;DHT22;48641;51.676;5.808;2024-01-25T12:39:06;15.20;54.40
62583;DHT22;48641;51.676;5.808;2024-01-25T12:41:32;15.20;54.40
62583;DHT22;48641;51.676;5.808;2024-01-25T12:43:58;15.10;54.30
62583;DHT22;48641;51.676;5.808;2024-01-25T12:46:23;15.10;54.30
62583;DHT22;48641;51.676;5.808;2024-01-25T12:48:49;15.10;54.40
62583;DHT22;48641;51.676;5.808;2024-01-25T12:51:20;15.10;54.50
62583;DHT22;48641;51.676;5.808;2024-01-25T12:53:47;15.10;54.60
62583;DHT22;48641;51.676;5.808;2024-01-25T12:56:12;15.10;54.60
62583;DHT22;48641;51.676;5.808;2024-01-25T12:58:38;15.10;54.60
62583;DHT22;48641;51.676;5.808;2024-01-25T13:01:04;15.10;54.50
62583;DHT22;48641;51.676;5.808;2024-01-25T13:03:30;15.10;54.50
62583;DHT22;48641;51.676;5.808;2024-01-25T13:05:56;15.20;54.60
62583;DHT22;48641;51.676;5.808;2024-01-25T13:08:21;15.20;54.50
62583;DHT22;48641;51.676;5.808;2024-01-25T13:10:47;15.20;54.40
62583;DHT22;48641;51.676;5.808;2024-01-25T13:13:12;15.30;54.40
62583;DHT22;48641;51.676;5.808;2024-01-25T13:15:38;15.20;54.30
62583;DHT22;48641;51.676;5.808;2024-01-25T13:18:04;15.30;55.20
62583;DHT22;48641;51.676;5.808;2024-01-25T13:20:29;15.30;54.20
62583;DHT22;48641;51.676;5.808;2024-01-25T13:22:55;15.30;54.10
62583;DHT22;48641;51.676;5.808;2024-01-25T13:25:20;15.30;54.10
62583;DHT22;48641;51.676;5.808;2024-01-25T13:27:46;15.40;54.10
62583;DHT22;48641;51.676;5.808;2024-01-25T13:30:12;15.40;54.10
62583;DHT22;48641;51.676;5.808;2024-01-25T13:32:39;15.40;54.00
62583;DHT22;48641;51.676;5.808;2024-01-25T13:35:04;15.40;54.00
62583;DHT22;48641;51.676;5.808;2024-01-25T13:37:30;15.40;54.00
62583;DHT22;48641;51.676;5.808;2024-01-25T13:39:55;15.40;54.00
62583;DHT22;48641;51.676;5.808;2024-01-25T13:42:21;15.40;53.90
62583;DHT22;48641;51.676;5.808;2024-01-25T13:44:47;15.40;53.90
62583;DHT22;48641;51.676;5.808;2024-01-25T13:47:12;15.40;53.90
62583;DHT22;48641;51.676;5.808;2024-01-25T13:49:38;15.40;54.00
62583;DHT22;48641;51.676;5.808;2024-01-25T13:52:04;15.40;54.00
62583;DHT22;48641;51.676;5.808;2024-01-25T13:54:30;15.40;54.10
62583;DHT22;48641;51.676;5.808;2024-01-25T13:56:55;15.40;54.10
62583;DHT22;48641;51.676;5.808;2024-01-25T13:59:21;15.40;54.00
62583;DHT22;48641;51.676;5.808;2024-01-25T14:01:46;15.40;54.00
62583;DHT22;48641;51.676;5.808;2024-01-25T14:04:12;15.40;54.10
62583;DHT22;48641;51.676;5.808;2024-01-25T14:06:39;15.40;54.10
62583;DHT22;48641;51.676;5.808;2024-01-25T14:09:04;15.40;54.00
62583;DHT22;48641;51.676;5.808;2024-01-25T14:11:30;15.40;54.00
62583;DHT22;48641;51.676;5.808;2024-01-25T14:13:56;15.30;54.00
62583;DHT22;48641;51.676;5.808;2024-01-25T14:16:22;15.40;54.10
62583;DHT22;48641;51.676;5.808;2024-01-25T14:18:47;15.30;54.10
62583;DHT22;48641;51.676;5.808;2024-01-25T14:21:13;15.30;54.10
62583;DHT22;48641;51.676;5.808;2024-01-25T14:23:38;15.30;54.10
62583;DHT22;48641;51.676;5.808;2024-01-25T14:26:04;15.30;54.10
62583;DHT22;48641;51.676;5.808;2024-01-25T14:28:30;15.30;54.10
62583;DHT22;48641;51.676;5.808;2024-01-25T14:30:55;15.30;54.10
62583;DHT22;48641;51.676;5.808;2024-01-25T14:33:21;15.30;54.10
62583;DHT22;48641;51.676;5.808;2024-01-25T14:35:46;15.30;54.00
62583;DHT22;48641;51.676;5.808;2024-01-25T14:38:12;15.30;54.00
62583;DHT22;48641;51.676;5.808;2024-01-25T14:40:38;15.30;54.10
62583;DHT22;48641;51.676;5.808;2024-01-25T14:43:03;15.30;54.10
62583;DHT22;48641;51.676;5.808;2024-01-25T14:45:29;15.30;54.10
62583;DHT22;48641;51.676;5.808;2024-01-25T14:47:56;15.30;54.10
62583;DHT22;48641;51.676;5.808;2024-01-25T14:50:21;15.30;54.10
62583;DHT22;48641;51.676;5.808;2024-01-25T14:52:47;15.30;54.10
62583;DHT22;48641;51.676;5.808;2024-01-25T14:55:13;15.30;54.10
62583;DHT22;48641;51.676;5.808;2024-01-25T14:57:38;15.30;54.10
62583;DHT22;48641;51.676;5.808;2024-01-25T15:00:04;15.30;54.10
62583;DHT22;48641;51.676;5.808;2024-01-25T15:02:32;15.30;54.10
62583;DHT22;48641;51.676;5.808;2024-01-25T15:04:57;15.30;54.10
62583;DHT22;48641;51.676;5.808;2024-01-25T15:07:23;15.30;54.10
62583;DHT22;48641;51.676;5.808;2024-01-25T15:09:49;15.40;54.10
62583;DHT22;48641;51.676;5.808;2024-01-25T15:12:14;15.40;55.00
62583;DHT22;48641;51.676;5.808;2024-01-25T15:14:41;15.30;54.00
62583;DHT22;48641;51.676;5.808;2024-01-25T15:17:06;15.40;54.10
62583;DHT22;48641;51.676;5.808;2024-01-25T15:19:32;15.30;54.00
62583;DHT22;48641;51.676;5.808;2024-01-25T15:21:57;15.40;54.10
62583;DHT22;48641;51.676;5.808;2024-01-25T15:24:23;15.40;54.00